Time;durP1;ratioP1;P1;durP2;ratioP2;P2;SDS_P1;SDS_P2;PMS_P1;PMS_P2;Temp;Humidity;BMP_temperature;BMP_pressure;BME280_temperature;BME280_humidity;BME280_pressure;Samples;Min_cycle;Max_cycle;Signal;HPM_P1;HPM_P2
2024/04/07 00:02:11;;;;;;;3.17;1.58;;;;;;;20.14;26.68;100463.50;4950478;28;20050;-81
2024/04/07 00:04:38;;;;;;;3.33;1.85;;;;;;;20.14;26.98;100462.63;4955778;28;20047;-81
2024/04/07 00:07:04;;;;;;;4.40;1.63;;;;;;;20.13;26.64;100469.25;4961832;28;20050;-81
2024/04/07 00:09:31;;;;;;;4.00;1.58;;;;;;;20.12;26.76;100462.00;4950070;28;20043;-82
2024/04/07 00:12:00;;;;;;;3.30;1.70;;;;;;;20.13;26.74;100461.78;4942524;28;20571;-83
2024/04/07 00:14:27;;;;;;;3.40;1.20;;;;;;;20.13;26.76;100469.25;4958022;28;20054;-82
2024/04/07 00:16:54;;;;;;;3.65;1.77;;;;;;;20.12;26.59;100470.34;4941539;28;20054;-81
2024/04/07 00:19:20;;;;;;;3.05;1.25;;;;;;;20.12;26.86;100482.28;4976057;28;20074;-82
2024/04/07 00:21:46;;;;;;;3.00;1.40;;;;;;;20.12;26.88;100473.13;4956026;28;20515;-81
2024/04/07 00:24:13;;;;;;;3.15;1.40;;;;;;;20.11;26.61;100468.63;4955265;28;20050;-82
2024/04/07 00:26:39;;;;;;;2.67;1.30;;;;;;;20.11;26.67;100472.25;4956540;28;20058;-80
2024/04/07 00:29:08;;;;;;;3.55;1.50;;;;;;;20.13;26.75;100477.59;4938055;28;20035;-81
2024/04/07 00:31:34;;;;;;;3.10;1.30;;;;;;;20.12;26.73;100481.47;4955620;28;20043;-82
2024/04/07 00:34:01;;;;;;;3.05;1.38;;;;;;;20.11;26.67;100482.53;4954987;28;20097;-83
2024/04/07 00:36:27;;;;;;;4.13;1.33;;;;;;;20.12;26.86;100482.28;4948637;28;20531;-81
2024/04/07 00:38:54;;;;;;;2.85;1.33;;;;;;;20.10;26.54;100483.56;4953814;28;20101;-83
2024/04/07 00:41:20;;;;;;;2.72;1.45;;;;;;;20.11;26.65;100483.38;4956107;28;20092;-82
2024/04/07 00:43:47;;;;;;;3.17;1.35;;;;;;;20.09;26.80;100491.06;4956080;28;20047;-82
2024/04/07 00:46:16;;;;;;;4.30;1.85;;;;;;;20.12;26.93;100509.25;4946175;28;20066;-82
2024/04/07 00:48:43;;;;;;;2.95;1.35;;;;;;;20.09;26.86;100510.50;4956008;28;20035;-81
2024/04/07 00:51:10;;;;;;;2.97;1.10;;;;;;;20.09;26.98;100526.31;4952984;28;20042;-82
2024/04/07 00:53:37;;;;;;;3.25;1.27;;;;;;;20.08;26.82;100525.44;4952585;28;20143;-81
2024/04/07 00:56:04;;;;;;;3.83;1.55;;;;;;;20.07;26.65;100528.44;4935442;28;20039;-83
2024/04/07 00:58:31;;;;;;;3.80;1.30;;;;;;;20.07;26.83;100537.63;4951493;28;20039;-82
2024/04/07 01:00:57;;;;;;;3.00;1.40;;;;;;;20.08;26.88;100532.94;4948778;28;20087;-82
2024/04/07 01:03:26;;;;;;;3.03;1.50;;;;;;;20.10;26.44;100537.22;4947614;28;20043;-81
2024/04/07 01:05:54;;;;;;;2.88;1.20;;;;;;;20.08;26.75;100538.47;4953463;28;20134;-81
2024/04/07 01:08:22;;;;;;;2.90;1.50;;;;;;;20.08;26.85;100547.66;4936582;29;20228;-81
2024/04/07 01:10:50;;;;;;;2.97;1.33;;;;;;;20.07;26.92;100548.72;4933964;28;20118;-82
2024/04/07 01:13:18;;;;;;;4.13;1.42;;;;;;;20.05;26.64;100559.19;4947295;28;20054;-82
2024/04/07 01:15:44;;;;;;;4.05;1.23;;;;;;;20.03;26.77;100558.56;4952432;28;20586;-81
2024/04/07 01:18:11;;;;;;;4.28;1.30;;;;;;;20.04;26.61;100576.06;4955171;28;20050;-81
2024/04/07 01:20:40;;;;;;;3.88;1.65;;;;;;;20.04;26.52;100571.34;4962940;28;20062;-82
2024/04/07 01:23:07;;;;;;;4.18;1.40;;;;;;;20.02;26.55;100573.50;4941605;28;20124;-83
2024/04/07 01:25:34;;;;;;;3.28;1.27;;;;;;;20.01;26.77;100567.09;4953563;28;20048;-82
2024/04/07 01:28:04;;;;;;;3.35;1.30;;;;;;;20.00;26.75;100573.69;4947383;28;20043;-82
2024/04/07 01:30:31;;;;;;;3.47;1.20;;;;;;;19.99;26.79;100579.44;4957873;28;20057;-81
2024/04/07 01:32:58;;;;;;;2.35;1.10;;;;;;;19.98;26.53;100581.38;4957538;28;20055;-84
2024/04/07 01:35:25;;;;;;;2.33;1.40;;;;;;;19.97;26.67;100599.09;4945155;28;20047;-82
2024/04/07 01:37:52;;;;;;;3.17;1.15;;;;;;;19.97;26.72;100603.78;4958905;28;20055;-83
2024/04/07 01:40:18;;;;;;;3.30;1.38;;;;;;;19.96;27.07;100605.69;4940819;29;20669;-84
2024/04/07 01:42:47;;;;;;;3.05;1.20;;;;;;;19.98;26.94;100614.69;4953097;28;20125;-84
2024/04/07 01:45:14;;;;;;;3.28;1.40;;;;;;;19.94;27.04;100621.72;4951993;28;20050;-83
2024/04/07 01:47:42;;;;;;;2.88;1.10;;;;;;;19.94;26.80;100632.84;4952766;28;20043;-84
2024/04/07 01:50:08;;;;;;;2.70;1.20;;;;;;;19.93;26.86;100630.25;4942231;28;20043;-83
2024/04/07 01:52:35;;;;;;;2.92;1.33;;;;;;;19.92;26.84;100618.28;4942511;29;20035;-83
2024/04/07 01:55:01;;;;;;;3.13;1.30;;;;;;;19.92;26.66;100606.31;4938260;28;20050;-82
2024/04/07 01:57:28;;;;;;;3.33;1.20;;;;;;;19.92;26.76;100609.97;4936294;29;20552;-82
2024/04/07 01:59:56;;;;;;;2.90;1.08;;;;;;;19.92;26.93;100628.53;4939478;28;20055;-83
2024/04/07 02:02:23;;;;;;;3.28;1.20;;;;;;;19.90;27.04;100652.84;4967561;28;20562;-83
2024/04/07 02:04:49;;;;;;;3.33;1.25;;;;;;;19.89;27.04;100668.66;4959994;28;20125;-84
2024/04/07 02:07:18;;;;;;;3.60;1.30;;;;;;;19.90;26.98;100691.72;4960042;28;20435;-84
2024/04/07 02:09:47;;;;;;;2.85;1.15;;;;;;;19.91;26.91;100686.00;4960642;28;20043;-81
2024/04/07 02:12:15;;;;;;;3.13;1.40;;;;;;;19.86;27.19;100688.50;4944126;28;20054;-83
2024/04/07 02:14:41;;;;;;;2.75;1.08;;;;;;;19.86;27.21;100693.19;4957384;28;20046;-84
2024/04/07 02:17:11;;;;;;;2.92;1.27;;;;;;;19.88;27.19;100724.38;4955512;28;20066;-84
2024/04/07 02:19:37;;;;;;;3.08;1.08;;;;;;;19.86;27.09;100716.28;4962423;28;20043;-82
2024/04/07 02:22:05;;;;;;;3.00;1.25;;;;;;;19.83;27.16;100707.47;4967152;28;20057;-83
2024/04/07 02:24:31;;;;;;;3.35;1.25;;;;;;;19.81;27.37;100702.09;4963077;28;20212;-82
2024/04/07 02:26:59;;;;;;;3.83;1.02;;;;;;;19.81;27.24;100734.56;4958835;28;20042;-83
2024/04/07 02:29:25;;;;;;;3.92;1.30;;;;;;;19.80;27.53;100755.94;4947623;28;20042;-84
2024/04/07 02:31:52;;;;;;;4.43;1.33;;;;;;;19.79;27.65;100761.69;4940079;28;20039;-83
2024/04/07 02:34:19;;;;;;;3.42;1.40;;;;;;;19.80;27.56;100746.72;4975531;28;20046;-83
2024/04/07 02:36:46;;;;;;;3.42;1.30;;;;;;;19.77;27.91;100766.59;4974798;28;20069;-82
2024/04/07 02:39:17;;;;;;;4.68;1.60;;;;;;;19.75;27.93;100790.91;4963138;28;20046;-83
2024/04/07 02:41:45;;;;;;;3.78;1.38;;;;;;;19.74;27.87;100787.25;4937400;28;20049;-82
2024/04/07 02:44:11;;;;;;;3.78;1.15;;;;;;;19.73;28.43;100790.22;4944576;28;20446;-83
2024/04/07 02:49:24;;;;;;;5.95;1.50;;;;;;;19.71;28.32;100786.81;4943971;29;20051;-82
2024/04/07 02:51:51;;;;;;;5.97;1.38;;;;;;;19.68;28.48;100801.09;4935216;28;20047;-82
2024/04/07 02:54:17;;;;;;;3.03;1.42;;;;;;;19.67;28.43;100805.78;4937425;28;20050;-83
2024/04/07 02:56:44;;;;;;;5.07;1.40;;;;;;;19.64;29.09;100807.00;4955329;28;20042;-82
2024/04/07 02:59:10;;;;;;;4.20;1.38;;;;;;;19.63;28.58;100821.94;4934059;28;20066;-83
2024/04/07 03:01:37;;;;;;;2.45;1.17;;;;;;;19.58;29.17;100821.69;4941083;28;20039;-83
2024/04/07 03:04:04;;;;;;;4.38;1.35;;;;;;;19.60;28.97;100827.91;4956848;28;20054;-83
2024/04/07 03:06:33;;;;;;;2.83;1.38;;;;;;;19.59;29.08;100819.78;4962815;28;20051;-82
2024/04/07 03:08:59;;;;;;;3.38;1.52;;;;;;;19.56;29.26;100817.38;4955572;28;20039;-82
2024/04/07 03:11:26;;;;;;;2.75;1.30;;;;;;;19.55;29.67;100821.19;4944896;28;20053;-84
2024/04/07 03:13:54;;;;;;;4.72;1.42;;;;;;;19.54;29.48;100831.44;4956156;28;20506;-83
2024/04/07 03:16:22;;;;;;;2.30;1.23;;;;;;;19.53;29.53;100846.41;4960005;28;20043;-83
2024/04/07 03:18:48;;;;;;;3.80;1.50;;;;;;;19.52;29.70;100857.69;4964536;28;20093;-84
2024/04/07 03:21:15;;;;;;;4.38;1.52;;;;;;;19.50;30.24;100868.13;4948115;28;20657;-84
2024/04/07 03:23:42;;;;;;;3.45;1.40;;;;;;;19.51;30.05;100862.38;4956928;28;20038;-84
2024/04/07 03:26:12;;;;;;;4.85;1.70;;;;;;;19.45;29.90;100859.53;4944003;28;20089;-84
2024/04/07 03:28:38;;;;;;;3.22;1.70;;;;;;;19.45;30.60;100862.28;4961880;28;20047;-83
2024/04/07 03:31:09;;;;;;;3.33;1.60;;;;;;;19.44;30.15;100869.75;4951003;28;20131;-83
2024/04/07 03:33:36;;;;;;;7.88;1.95;;;;;;;19.40;30.39;100879.50;4953919;28;20090;-82
2024/04/07 03:36:03;;;;;;;3.85;1.33;;;;;;;19.40;30.45;100900.84;4939254;28;20050;-82
2024/04/07 03:38:31;;;;;;;3.72;1.48;;;;;;;19.39;31.03;100913.00;4952414;29;20536;-82
2024/04/07 03:41:09;;;;;;;3.05;1.52;;;;;;;19.39;31.19;100911.09;4954385;28;20068;-83
2024/04/07 03:43:51;;;;;;;3.13;1.30;;;;;;;19.36;31.46;100919.81;4975603;28;20070;-83
2024/04/07 03:46:19;;;;;;;3.10;1.33;;;;;;;19.32;31.20;100934.25;4939274;28;20061;-82
2024/04/07 03:48:52;;;;;;;4.20;1.40;;;;;;;19.31;31.44;100941.69;4965940;28;20047;-83
2024/04/07 03:51:22;;;;;;;4.38;1.48;;;;;;;19.30;31.02;100939.09;4919700;29;20051;-85
2024/04/07 03:53:52;;;;;;;5.45;1.90;;;;;;;19.27;31.49;100935.69;4943741;28;20051;-84
2024/04/07 03:56:23;;;;;;;3.88;1.60;;;;;;;19.27;31.51;100951.47;4957934;28;20093;-83
2024/04/07 03:58:57;;;;;;;6.07;1.70;;;;;;;19.24;31.05;100946.28;4940303;28;20069;-83
2024/04/07 04:01:25;;;;;;;4.15;1.70;;;;;;;19.22;31.65;100940.91;4957549;28;20074;-82
2024/04/07 04:03:51;;;;;;;4.78;1.52;;;;;;;19.24;31.35;100924.09;4958815;28;20583;-82
2024/04/07 04:06:18;;;;;;;5.43;1.73;;;;;;;19.22;31.45;100926.19;4961927;28;20110;-84
2024/04/07 04:08:44;;;;;;;3.92;1.52;;;;;;;19.22;31.57;100926.19;4951252;28;20063;-82
2024/04/07 04:11:13;;;;;;;4.97;1.80;;;;;;;19.21;32.06;100922.53;4940411;28;20101;-82
2024/04/07 04:13:43;;;;;;;4.43;1.58;;;;;;;19.23;32.13;100941.78;4935540;28;20043;-83
2024/04/07 04:16:10;;;;;;;4.68;1.70;;;;;;;19.21;31.76;100946.69;4953627;28;20042;-84
2024/04/07 04:18:36;;;;;;;4.63;1.83;;;;;;;19.21;32.20;100943.91;4945325;28;20054;-81
2024/04/07 04:21:03;;;;;;;4.43;1.50;;;;;;;19.21;31.96;100935.59;4941214;28;20049;-83
2024/04/07 04:23:29;;;;;;;3.65;1.60;;;;;;;19.19;31.67;100899.66;4955597;28;20048;-82
2024/04/07 04:25:57;;;;;;;3.72;1.33;;;;;;;19.19;31.58;100896.91;4955232;28;20042;-83
2024/04/07 04:28:23;;;;;;;4.72;1.40;;;;;;;19.17;31.74;100912.00;4964897;28;20053;-80
2024/04/07 04:30:55;;;;;;;3.58;1.48;;;;;;;19.18;32.13;100927.59;4960930;28;20043;-82
2024/04/07 04:33:21;;;;;;;;;;;;;;;18.87;32.54;100958.22;4943682;28;20066;-82
2024/04/07 04:35:49;;;;;;;2.47;1.27;;;;;;;19.06;31.70;100974.34;4958822;28;19926;-83
2024/04/07 04:38:15;;;;;;;2.35;1.27;;;;;;;19.08;31.50;100983.34;4944117;28;20046;-82
2024/04/07 04:40:51;;;;;;;4.18;1.42;;;;;;;19.07;32.01;100987.16;4958446;28;20056;-83
2024/04/07 04:43:18;;;;;;;3.38;1.10;;;;;;;19.04;31.58;100984.78;4955206;28;20054;-83
2024/04/07 04:45:46;;;;;;;2.10;0.90;;;;;;;19.02;31.72;100984.09;4939869;28;20045;-83
2024/04/07 04:48:13;;;;;;;1.95;0.95;;;;;;;19.01;31.70;100996.25;4955559;28;20031;-83
2024/04/07 04:50:40;;;;;;;3.28;1.23;;;;;;;18.98;31.75;101015.16;4944599;28;20050;-81
2024/04/07 04:53:07;;;;;;;3.30;1.35;;;;;;;18.95;32.04;101024.72;4930491;28;20502;-83
2024/04/07 04:55:34;;;;;;;3.25;1.20;;;;;;;18.94;31.88;101016.59;4955027;28;20035;-83
2024/04/07 04:58:00;;;;;;;2.80;1.10;;;;;;;18.89;31.95;101001.34;4957248;28;20053;-83
2024/04/07 05:00:27;;;;;;;2.90;1.17;;;;;;;18.90;32.25;101007.75;4943486;29;20078;-81
2024/04/07 05:02:55;;;;;;;3.35;1.33;;;;;;;18.86;32.29;101015.59;4950796;28;20039;-82
2024/04/07 05:05:26;;;;;;;2.15;1.10;;;;;;;18.88;32.36;101024.56;4941067;28;20046;-83
2024/04/07 05:07:52;;;;;;;2.83;1.40;;;;;;;18.85;32.50;101018.56;4938500;28;20047;-80
2024/04/07 05:10:19;;;;;;;1.80;1.00;;;;;;;18.83;32.15;100993.78;4954494;28;20565;-82
2024/04/07 05:12:45;;;;;;;3.47;1.52;;;;;;;18.81;32.28;100992.22;4948426;28;20038;-81
2024/04/07 05:15:12;;;;;;;3.20;1.10;;;;;;;18.81;32.74;100990.31;4939825;28;20411;-81
2024/04/07 05:17:39;;;;;;;2.78;1.40;;;;;;;18.80;32.60;100987.75;4953969;28;20098;-83
2024/04/07 05:20:06;;;;;;;3.40;1.30;;;;;;;18.80;32.96;100996.06;4954572;28;20035;-82
2024/04/07 05:22:35;;;;;;;6.15;1.48;;;;;;;18.81;33.01;101009.72;4931232;28;20512;-81
2024/04/07 05:25:02;;;;;;;2.72;1.27;;;;;;;18.78;32.94;101012.91;4938088;28;20515;-82
2024/04/07 05:27:29;;;;;;;3.08;1.40;;;;;;;18.80;32.98;101023.81;4956927;28;20042;-80
2024/04/07 05:29:55;;;;;;;2.97;1.35;;;;;;;18.79;33.19;101011.84;4954847;28;20047;-80
2024/04/07 05:32:22;;;;;;;3.30;1.60;;;;;;;18.79;33.37;101005.44;4956906;28;20121;-80
2024/04/07 05:34:48;;;;;;;5.10;1.60;;;;;;;18.78;33.38;100993.50;4956230;28;20035;-82
2024/04/07 05:37:15;;;;;;;3.88;1.42;;;;;;;18.79;33.55;100999.91;4953900;28;20113;-81
2024/04/07 05:39:47;;;;;;;2.63;1.20;;;;;;;18.81;33.92;100990.31;4939710;28;20043;-83
2024/04/07 05:42:14;;;;;;;2.60;1.20;;;;;;;18.74;33.40;100994.88;4968653;28;20043;-81
2024/04/07 05:44:40;;;;;;;3.38;1.48;;;;;;;18.77;33.47;100988.97;4972290;28;20842;-81
2024/04/07 05:47:08;;;;;;;3.92;1.52;;;;;;;18.77;33.25;100988.13;4957004;28;20043;-81
2024/04/07 05:49:35;;;;;;;4.25;1.25;;;;;;;18.76;33.43;100981.72;4953438;28;20031;-81
2024/04/07 05:52:03;;;;;;;4.35;1.35;;;;;;;18.75;33.98;100971.66;4941204;28;20046;-81
2024/04/07 05:54:29;;;;;;;3.55;1.65;;;;;;;18.73;33.43;100976.53;4936425;28;20034;-83
2024/04/07 05:56:57;;;;;;;4.30;1.45;;;;;;;18.74;33.57;100971.84;4944815;28;20496;-82
2024/04/07 05:59:24;;;;;;;3.08;1.20;;;;;;;18.73;33.58;100970.13;4948266;29;20098;-82
2024/04/07 06:01:51;;;;;;;2.75;1.25;;;;;;;18.71;34.01;100986.09;4954246;28;20043;-82
2024/04/07 06:04:17;;;;;;;3.38;1.10;;;;;;;18.69;33.60;100983.50;4970783;28;20035;-81
2024/04/07 06:06:47;;;;;;;3.45;1.30;;;;;;;18.69;33.75;100979.88;4950887;28;20574;-82
2024/04/07 06:09:14;;;;;;;2.95;1.23;;;;;;;18.68;33.93;100989.22;4937783;28;20050;-81
2024/04/07 06:11:41;;;;;;;2.40;1.30;;;;;;;18.66;33.47;100977.44;4934207;28;20039;-82
2024/04/07 06:14:08;;;;;;;4.18;1.50;;;;;;;18.66;33.70;100980.22;4940448;28;20058;-82
2024/04/07 06:16:37;;;;;;;2.92;1.27;;;;;;;18.65;33.59;100982.13;4938385;28;20039;-81
2024/04/07 06:19:03;;;;;;;4.35;1.48;;;;;;;18.65;33.78;100987.66;4940259;28;20047;-82
2024/04/07 06:21:31;;;;;;;3.20;1.08;;;;;;;18.64;33.62;100985.06;4936479;28;20090;-82
2024/04/07 06:23:57;;;;;;;3.33;1.20;;;;;;;18.63;33.79;100984.25;4948800;28;20427;-82
2024/04/07 06:26:24;;;;;;;2.60;1.00;;;;;;;18.65;33.71;100992.34;4963665;28;20057;-83
2024/04/07 06:28:50;;;;;;;2.97;1.20;;;;;;;18.65;33.76;100993.22;4938043;28;20047;-81
2024/04/07 06:31:18;;;;;;;3.08;1.40;;;;;;;18.69;33.70;100994.59;4956927;28;20050;-82
2024/04/07 06:33:44;;;;;;;2.47;1.20;;;;;;;18.68;33.89;101000.31;4958906;28;20086;-82
2024/04/07 06:36:11;;;;;;;2.92;1.20;;;;;;;18.70;33.62;101010.19;4941228;28;20051;-82
2024/04/07 06:38:37;;;;;;;2.38;1.30;;;;;;;18.71;34.18;101011.91;4959367;28;20043;-82
2024/04/07 06:41:04;;;;;;;3.10;1.40;;;;;;;18.74;34.18;101005.97;4941924;28;20695;-84
2024/04/07 06:43:31;;;;;;;3.30;1.33;;;;;;;18.77;34.33;101005.63;4977775;28;20077;-83
2024/04/07 06:45:58;;;;;;;2.80;1.23;;;;;;;18.78;34.33;101001.81;4958917;28;20035;-83
2024/04/07 06:48:26;;;;;;;6.05;1.58;;;;;;;18.84;34.19;101016.81;4951499;28;20511;-83
2024/04/07 06:50:53;;;;;;;2.88;1.30;;;;;;;18.83;34.16;101015.97;4959170;28;20047;-83
2024/04/07 06:53:18;;;;;;;3.20;1.30;;;;;;;18.85;34.29;101005.56;4955553;28;20035;-82
2024/04/07 06:55:46;;;;;;;4.10;1.42;;;;;;;18.87;34.13;101022.88;4940479;28;20041;-83
2024/04/07 06:58:11;;;;;;;3.92;1.25;;;;;;;18.85;34.24;101016.66;4955385;28;20121;-82
2024/04/07 07:00:40;;;;;;;2.63;1.20;;;;;;;18.89;34.09;101028.22;4950192;28;20042;-82
2024/04/07 07:03:06;;;;;;;3.20;1.50;;;;;;;18.90;34.40;101032.72;4942550;28;20046;-82
2024/04/07 07:05:34;;;;;;;3.28;1.17;;;;;;;18.94;34.09;101034.09;4940231;28;20066;-81
2024/04/07 07:08:00;;;;;;;3.58;1.40;;;;;;;18.93;34.46;101037.03;4935459;28;20094;-83
2024/04/07 07:10:27;;;;;;;4.60;1.30;;;;;;;18.94;34.47;101030.47;4951970;28;20067;-82
2024/04/07 07:12:53;;;;;;;4.95;1.42;;;;;;;18.96;34.28;101033.91;4930301;28;20031;-78
2024/04/07 07:15:20;;;;;;;3.92;1.48;;;;;;;18.95;34.43;101037.72;4955389;28;20502;-78
2024/04/07 07:17:46;;;;;;;4.00;1.58;;;;;;;18.97;34.70;101046.69;4953774;28;20054;-78
2024/04/07 07:20:13;;;;;;;4.05;1.50;;;;;;;18.98;34.84;101048.44;4957969;28;20051;-79
2024/04/07 07:22:41;;;;;;;3.28;1.40;;;;;;;19.01;34.60;101053.63;4956980;28;20435;-79
2024/04/07 07:25:07;;;;;;;3.65;1.27;;;;;;;19.00;34.75;101051.91;4950515;28;20090;-78
2024/04/07 07:27:34;;;;;;;2.65;1.23;;;;;;;19.01;34.82;101048.06;4958827;28;20530;-77
2024/04/07 07:30:00;;;;;;;3.38;1.50;;;;;;;19.03;34.80;101051.53;4946112;28;20035;-77
2024/04/07 07:32:26;;;;;;;3.30;1.20;;;;;;;19.05;34.23;101061.38;4959797;28;20050;-78
2024/04/07 07:34:53;;;;;;;4.10;1.40;;;;;;;19.05;34.38;101057.78;4938011;28;20035;-78
2024/04/07 07:37:19;;;;;;;2.83;1.10;;;;;;;19.04;34.57;101065.22;4957985;28;20043;-79
2024/04/07 07:39:47;;;;;;;2.85;1.48;;;;;;;19.08;34.37;101063.78;4937270;28;20126;-79
2024/04/07 07:42:13;;;;;;;3.78;1.40;;;;;;;19.07;34.52;101063.97;4939473;28;20063;-79
2024/04/07 07:44:40;;;;;;;3.17;1.42;;;;;;;19.06;34.54;101068.66;4940723;28;20123;-78
2024/04/07 07:47:06;;;;;;;2.17;1.02;;;;;;;19.07;34.42;101066.75;4952415;28;20039;-79
2024/04/07 07:49:33;;;;;;;3.72;1.23;;;;;;;19.07;34.62;101069.53;4958929;28;20050;-79
2024/04/07 07:51:59;;;;;;;3.20;1.38;;;;;;;19.07;34.65;101078.72;4960762;28;20066;-79
2024/04/07 07:54:25;;;;;;;3.85;1.20;;;;;;;19.07;34.71;101075.06;4962196;28;20511;-79
2024/04/07 07:56:53;;;;;;;3.25;1.30;;;;;;;19.10;34.35;101088.59;4957602;28;20130;-79
2024/04/07 07:59:20;;;;;;;2.30;1.23;;;;;;;19.08;34.65;101094.31;4961757;28;20046;-79
2024/04/07 08:01:46;;;;;;;3.30;1.20;;;;;;;19.09;34.22;101095.19;4958865;28;20069;-79
2024/04/07 08:04:13;;;;;;;3.08;1.30;;;;;;;19.10;34.32;101096.91;4958519;28;20038;-79
2024/04/07 08:06:39;;;;;;;2.78;1.20;;;;;;;19.12;34.50;101100.38;4959495;28;20385;-79
2024/04/07 08:09:06;;;;;;;2.30;1.15;;;;;;;19.13;34.49;101107.66;4949815;28;20093;-79
2024/04/07 08:11:32;;;;;;;3.92;1.23;;;;;;;19.12;34.58;101109.56;4956058;28;20045;-79
2024/04/07 08:14:00;;;;;;;2.83;1.27;;;;;;;19.16;34.55;101115.56;4952554;28;20043;-78
2024/04/07 08:16:27;;;;;;;2.75;1.17;;;;;;;19.15;34.14;101113.84;4948819;28;20047;-78
2024/04/07 08:18:54;;;;;;;4.00;1.30;;;;;;;19.16;34.47;101118.34;4938183;28;20050;-78
2024/04/07 08:21:20;;;;;;;2.85;1.05;;;;;;;19.16;34.24;101112.81;4958662;28;20046;-78
2024/04/07 08:23:47;;;;;;;2.90;1.10;;;;;;;19.17;34.40;101100.66;4940708;28;20058;-80
2024/04/07 08:26:14;;;;;;;3.35;1.20;;;;;;;19.17;34.17;101103.44;4952962;28;20732;-78
2024/04/07 08:28:41;;;;;;;1.98;1.00;;;;;;;19.19;34.23;101107.75;4955640;28;20510;-79
2024/04/07 08:31:09;;;;;;;1.95;0.98;;;;;;;19.22;34.02;101104.63;4954413;28;20086;-79
2024/04/07 08:33:35;;;;;;;2.53;1.42;;;;;;;19.22;34.40;101112.09;4955451;28;20046;-79
2024/04/07 08:36:03;;;;;;;3.50;1.20;;;;;;;19.22;34.20;101118.50;4952731;28;20043;-79
2024/04/07 08:38:29;;;;;;;3.25;1.10;;;;;;;19.25;34.15;101117.28;4960132;28;20042;-79
2024/04/07 08:40:55;;;;;;;2.20;1.00;;;;;;;19.28;34.57;101122.47;4938029;28;20039;-78
2024/04/07 08:43:23;;;;;;;2.28;1.15;;;;;;;19.31;34.73;101122.09;4935394;28;20038;-80
2024/04/07 08:45:52;;;;;;;3.00;1.20;;;;;;;19.37;34.60;101121.38;4956339;28;20039;-78
2024/04/07 08:48:22;;;;;;;2.83;1.27;;;;;;;19.44;34.74;101127.03;4953700;28;20043;-78
2024/04/07 08:50:51;;;;;;;4.78;1.38;;;;;;;19.48;34.20;101128.38;4959940;28;20038;-79
2024/04/07 08:53:18;;;;;;;2.97;1.10;;;;;;;19.54;34.46;101122.09;4957888;28;20047;-78
2024/04/07 08:55:49;;;;;;;2.85;1.00;;;;;;;19.63;34.41;101126.50;4942235;28;20038;-79
2024/04/07 08:58:16;;;;;;;3.30;1.40;;;;;;;19.70;34.54;101123.84;4955629;28;20051;-79
2024/04/07 09:00:44;;;;;;;2.50;1.17;;;;;;;19.80;34.10;101119.75;4958016;28;20061;-78
2024/04/07 09:03:12;;;;;;;3.17;1.00;;;;;;;19.88;34.46;101124.34;4960074;28;20435;-78
2024/04/07 09:05:40;;;;;;;2.95;1.20;;;;;;;19.99;34.12;101115.59;4944014;28;20038;-79
2024/04/07 09:08:06;;;;;;;2.58;1.00;;;;;;;20.06;34.09;101111.00;4960112;28;20038;-79
2024/04/07 09:10:33;;;;;;;2.28;1.05;;;;;;;20.17;34.21;101110.53;4947660;28;20388;-79
2024/04/07 09:12:59;;;;;;;3.15;1.40;;;;;;;20.26;33.69;101120.50;4958126;28;20047;-79
2024/04/07 09:15:26;;;;;;;3.30;1.08;;;;;;;20.37;33.42;101120.00;4937178;28;20043;-79
2024/04/07 09:17:53;;;;;;;2.15;1.00;;;;;;;20.48;33.23;101121.44;4961087;28;20043;-78
2024/04/07 09:20:20;;;;;;;2.58;1.00;;;;;;;20.58;33.14;101110.88;4945247;28;20034;-79
2024/04/07 09:22:48;;;;;;;3.53;1.20;;;;;;;20.70;32.79;101114.91;4954874;28;20047;-78
2024/04/07 09:25:15;;;;;;;2.35;1.08;;;;;;;20.77;32.80;101121.44;4961346;28;20049;-78
2024/04/07 09:27:41;;;;;;;2.63;0.98;;;;;;;20.87;32.07;101118.34;4956432;28;20047;-78
2024/04/07 09:30:09;;;;;;;1.92;0.85;;;;;;;20.97;31.96;101127.22;4956597;28;20050;-78
2024/04/07 09:32:36;;;;;;;2.17;0.68;;;;;;;21.05;31.83;101120.69;4957485;28;20039;-79
2024/04/07 09:35:04;;;;;;;3.25;1.05;;;;;;;21.12;31.54;101124.41;4935265;28;20105;-79
2024/04/07 09:37:30;;;;;;;2.40;1.00;;;;;;;21.18;31.00;101123.63;4937951;28;20046;-78
2024/04/07 09:39:58;;;;;;;1.40;0.52;;;;;;;21.27;30.67;101113.25;4952287;28;20045;-78
2024/04/07 09:42:27;;;;;;;2.38;0.93;;;;;;;21.32;30.56;101119.94;4954518;28;20042;-78
2024/04/07 09:44:57;;;;;;;2.40;0.75;;;;;;;21.38;29.91;101134.97;4956386;28;20039;-77
2024/04/07 09:47:27;;;;;;;1.33;0.60;;;;;;;21.41;29.45;101132.69;4953996;28;20035;-78
2024/04/07 09:49:59;;;;;;;2.08;0.70;;;;;;;21.45;29.13;101128.41;4946700;28;20039;-78
2024/04/07 09:52:31;;;;;;;2.17;0.60;;;;;;;21.44;29.08;101126.69;4951835;29;20500;-77
2024/04/07 09:55:06;;;;;;;1.67;0.50;;;;;;;21.44;29.20;101126.69;4951969;28;20071;-78
2024/04/07 09:57:32;;;;;;;2.40;0.70;;;;;;;21.44;29.33;101118.34;4954144;28;20039;-78
2024/04/07 10:00:00;;;;;;;2.00;0.60;;;;;;;21.46;29.30;101112.56;4941851;28;20047;-78
2024/04/07 10:02:27;;;;;;;2.28;0.50;;;;;;;21.48;29.27;101116.03;4969487;28;20043;-78
2024/04/07 10:04:54;;;;;;;1.13;0.50;;;;;;;21.48;29.32;101110.47;4974054;28;20491;-78
2024/04/07 10:07:21;;;;;;;2.05;0.50;;;;;;;21.49;29.18;101120.53;4973568;28;20411;-77
2024/04/07 10:09:51;;;;;;;3.00;0.60;;;;;;;21.48;29.01;101116.88;4942953;28;20098;-78
2024/04/07 10:12:27;;;;;;;1.23;0.50;;;;;;;21.52;28.85;101115.41;4966208;28;20053;-78
2024/04/07 10:14:54;;;;;;;1.00;0.50;;;;;;;21.51;29.34;101118.44;4979310;28;20042;-78
2024/04/07 10:17:20;;;;;;;1.60;0.60;;;;;;;21.53;29.29;101119.06;4965461;28;20058;-77
2024/04/07 10:19:49;;;;;;;1.45;0.70;;;;;;;21.54;29.17;101118.00;4962328;28;20698;-77
2024/04/07 10:22:18;;;;;;;2.20;0.90;;;;;;;21.54;29.57;101118.00;4980099;28;20050;-77
2024/04/07 10:24:50;;;;;;;1.30;0.60;;;;;;;21.58;28.92;101116.56;4963348;28;20058;-77
2024/04/07 10:27:21;;;;;;;;;;;;;;;21.25;29.69;101104.22;4961138;28;20042;-77
2024/04/07 10:29:52;;;;;;;1.13;0.57;;;;;;;21.53;28.65;101105.13;4959739;28;19926;-78
2024/04/07 10:32:19;;;;;;;1.98;0.60;;;;;;;21.54;29.29;101104.06;4961456;28;20426;-78
2024/04/07 10:35:04;;;;;;;1.98;0.60;;;;;;;21.55;28.61;101094.66;4979256;28;20035;-78
2024/04/07 10:37:33;;;;;;;2.58;0.70;;;;;;;21.54;28.83;101120.78;4958660;28;20097;-78
2024/04/07 10:40:05;;;;;;;2.88;0.73;;;;;;;21.55;28.57;101124.44;4961014;28;20042;-78
2024/04/07 10:42:31;;;;;;;1.70;0.50;;;;;;;21.49;28.43;101117.75;4968040;28;20034;-78
2024/04/07 10:45:01;;;;;;;2.33;0.68;;;;;;;21.54;28.37;101120.78;4950825;28;21589;-78
2024/04/07 10:47:27;;;;;;;1.48;0.60;;;;;;;21.50;28.90;101109.22;4963819;28;20057;-78
2024/04/07 10:49:56;;;;;;;3.05;0.85;;;;;;;21.52;29.18;101106.19;4958577;28;20039;-80
2024/04/07 10:52:26;;;;;;;1.27;0.60;;;;;;;21.52;29.24;101120.13;4972695;28;20035;-79
2024/04/07 10:54:54;;;;;;;3.90;0.73;;;;;;;21.54;28.98;101131.94;4945063;28;20042;-78
2024/04/07 10:57:20;;;;;;;2.58;0.70;;;;;;;21.52;29.18;101126.56;4965787;28;20047;-78
2024/04/07 10:59:47;;;;;;;2.00;0.50;;;;;;;21.53;29.14;101119.94;4958136;28;20043;-78
2024/04/07 11:02:15;;;;;;;1.92;0.68;;;;;;;21.58;29.35;101118.47;4957568;28;20455;-78
2024/04/07 11:04:43;;;;;;;2.42;0.70;;;;;;;21.57;29.20;101123.19;4961695;28;20042;-79
2024/04/07 11:07:09;;;;;;;0.77;0.50;;;;;;;21.59;29.28;101118.28;4962918;28;20094;-79
2024/04/07 11:09:39;;;;;;;1.55;0.55;;;;;;;21.63;29.48;101127.09;4961730;28;20085;-78
2024/04/07 11:12:05;;;;;;;2.05;0.75;;;;;;;21.67;29.09;101120.94;4962033;28;20034;-77
2024/04/07 11:14:34;;;;;;;1.95;0.68;;;;;;;21.73;28.84;101114.53;4963618;28;20108;-77
2024/04/07 11:17:03;;;;;;;1.65;0.60;;;;;;;21.80;28.67;101112.66;4968843;28;20043;-78
2024/04/07 11:19:32;;;;;;;2.72;0.75;;;;;;;21.85;28.89;101110.13;4959505;28;20055;-79
2024/04/07 11:21:58;;;;;;;1.80;0.70;;;;;;;21.89;28.88;101119.81;4953752;28;20039;-79
2024/04/07 11:24:25;;;;;;;1.83;0.80;;;;;;;21.97;28.69;101117.97;4947310;28;20126;-79
2024/04/07 11:26:51;;;;;;;2.85;1.20;;;;;;;22.03;28.84;101122.72;4960159;28;20043;-77
2024/04/07 11:29:19;;;;;;;2.05;0.82;;;;;;;22.09;28.66;101111.66;4975028;28;20042;-78
2024/04/07 11:31:49;;;;;;;3.25;1.02;;;;;;;22.17;28.30;101113.41;4937205;28;20085;-78